• Join FlightAware (Why Join?)
  • Login
  • US Flag 
07:50AM EDT


 

Airport Tracker/Info


-or-


 

Live Flight TrackerFlight Track Log ✈ VH-VWO ✈ 21-May-2013 ✈ YMEK / MKR - YPLM / LEA

Flight Track Log - Related Links

Times and Time Zones

All times are in EDT time to prevent confusion due to time zone crossing. See the VH-VWO flight status page for this flight to view local times or setup timezone preferences in your user account.

Time Position Orientation Groundspeed Altitude Reporting Facility
EDT Latitude Longitude Course Direction KTS MPH feet Rate Location/Type
03:36AM -26.6070 118.5323 315° West 22,000  Level Aus ATC (Calculated)
03:37AM -26.5577 118.4767 315° West 22,000 -60 Level Aus ATC (Calculated)
03:38AM -26.5085 118.4211 315° West 22,000 -60 Level Aus ATC (Calculated)
03:40AM -26.5392 118.4557 315° West  Level FlightAware Approximate
03:40AM -26.4591 118.3656 315° West 22,000  Level Aus ATC (Calculated)
03:40AM -26.4098 118.3101 315° West 22,000 -60 Level Aus ATC (Calculated)
03:42AM -26.3638 118.2583 315° West  Level FlightAware Approximate
03:43AM -26.3199 118.2091 315° West  Level FlightAware Approximate
03:43AM -26.3111 118.1992 316° Northwest 22,000  Level Aus ATC (Calculated)
03:44AM -26.2617 118.1439 316° Northwest 22,000 -120 Level Aus ATC (Calculated)
03:46AM -26.2010 118.0759 315° West  Level FlightAware Approximate
03:46AM -26.1629 118.0333 23° Northeast 22,000  Level Aus ATC (Calculated)
03:47AM -26.1629 118.0333 23° Northeast 22,000 -120 Level Aus ATC (Calculated)
03:49AM -26.0911 117.9532 315° West  Level FlightAware Approximate
03:49AM -26.0639 117.9230 134° Southeast 22,000  Level Aus ATC (Calculated)
03:51AM -25.9950 117.8463 315° West  Level FlightAware Approximate
03:52AM -25.9510 117.7974 315° West  Level FlightAware Approximate
03:52AM -25.9649 117.8128 135° Southeast 22,000  Level Aus ATC (Calculated)
03:53AM -26.1604 118.0345 315° West 189 217 21,400  Descending Aus ATC (RADAR)
03:54AM -26.1165 117.9920 319° Northwest 208 239 22,100 300 Climbing Aus ATC (RADAR)
03:55AM -26.0960 117.9635 309° West 173 199 22,000 -120 Descending Aus ATC (RADAR)
03:55AM -26.0677 117.9347 318° Northwest 200 230 22,000  Level Aus ATC (RADAR)
03:56AM -26.0302 117.8940 316° Northwest 216 249 22,000  Level Aus ATC (RADAR)
03:57AM -26.0187 117.8795 311° West 223 257 22,000  Level Aus ATC (RADAR)
03:57AM -25.9912 117.8517 318° Northwest 226 260 22,000  Level Aus ATC (RADAR)
03:59AM -25.9200 117.7698 314° West 240 276 22,000  Level Aus ATC (RADAR)
03:59AM -25.9079 117.7569 316° Northwest 237 273 22,000  Level Aus ATC (RADAR)
03:59AM -25.8795 117.7254 315° West 238 274 22,000  Level Aus ATC (RADAR)
04:00AM -25.8393 117.6823 316° Northwest 237 273 22,000  Level Aus ATC (RADAR)
04:01AM -25.8151 117.6551 315° West 238 274 22,000  Level Aus ATC (RADAR)
04:01AM -25.7870 117.6222 313° West 241 277 22,000  Level Aus ATC (RADAR)
04:02AM -25.7591 117.5914 315° West 239 275 22,000 60 Level Aus ATC (RADAR)
04:03AM -25.7309 117.5603 315° West 237 273 22,100 60 Climbing Aus ATC (RADAR)
04:04AM -25.6787 117.5033 316° Northwest 235 270 22,100  Level Aus ATC (RADAR)
04:04AM -25.6586 117.4811 315° West 236 272 22,100  Level Aus ATC (RADAR)
04:05AM -25.6304 117.4483 314° West 240 276 22,100  Level Aus ATC (RADAR)
04:05AM -25.5901 117.4040 315° West 238 274 22,100  Level Aus ATC (RADAR)
04:06AM -25.5620 117.3736 316° Northwest 236 272 22,100  Level Aus ATC (RADAR)
04:07AM -25.5218 117.3290 315° West 237 273 22,100  Level Aus ATC (RADAR)
04:07AM -25.5018 117.3072 316° Northwest 236 272 22,100  Level Aus ATC (RADAR)
04:08AM -25.4583 117.2609 316° Northwest 229 264 22,100  Level Aus ATC (RADAR)
04:09AM -25.4383 117.2377 314° West 235 270 22,100  Level Aus ATC (RADAR)
04:09AM -25.4185 117.2162 316° Northwest 234 269 22,100  Level Aus ATC (RADAR)
04:10AM -25.3908 117.1864 316° Northwest 232 267 22,100  Level Aus ATC (RADAR)
04:10AM -25.3549 117.1465 315° West 232 267 22,100  Level Aus ATC (RADAR)
04:11AM -25.3229 117.1098 314° West 238 274 22,100  Level Aus ATC (RADAR)
04:12AM -25.2861 117.0668 313° West 244 281 22,100  Level Aus ATC (RADAR)
04:12AM -25.2660 117.0445 315° West 241 277 22,100  Level Aus ATC (RADAR)
04:13AM -25.2340 117.0095 315° West 237 273 22,100  Level Aus ATC (RADAR)
04:14AM -25.1901 116.9616 315° West 237 273 22,100  Level Aus ATC (RADAR)
04:14AM -25.1709 116.9426 318° Northwest 228 262 22,100  Level Aus ATC (RADAR)
04:15AM -25.1385 116.9065 315° West 235 270 22,100  Level Aus ATC (RADAR)
04:16AM -25.1025 116.8668 315° West 235 270 22,100  Level Aus ATC (RADAR)
04:16AM -25.0744 116.8357 315° West 236 272 22,100  Level Aus ATC (RADAR)
04:17AM -25.0341 116.7919 315° West 234 269 22,100  Level Aus ATC (RADAR)
04:17AM -25.0137 116.7692 315° West 239 275 22,100  Level Aus ATC (RADAR)
04:18AM -24.9847 116.7419 320° Northwest 233 268 22,100  Level Aus ATC (RADAR)
04:19AM -24.9427 116.6997 318° Northwest 235 270 22,100  Level Aus ATC (RADAR)
04:19AM -24.9259 116.6834 319° Northwest 236 272 22,100  Level Aus ATC (RADAR)
04:20AM -24.8928 116.6513 319° Northwest 230 265 22,100  Level Aus ATC (RADAR)
04:21AM -24.8411 116.5991 317° Northwest 240 276 22,100  Level Aus ATC (RADAR)
04:21AM -24.8117 116.5701 318° Northwest 237 273 22,100  Level Aus ATC (RADAR)
04:22AM -24.7693 116.5280 318° Northwest 237 273 22,100  Level Aus ATC (RADAR)
04:23AM -24.7404 116.4999 319° Northwest 232 267 22,100  Level Aus ATC (RADAR)
04:24AM -24.6979 116.4581 318° Northwest 236 272 22,100  Level Aus ATC (RADAR)
04:24AM -24.6721 116.4324 318° Northwest 238 274 22,100  Level Aus ATC (RADAR)
04:25AM -24.6514 116.4122 319° Northwest 235 270 22,100  Level Aus ATC (RADAR)
04:25AM -24.6212 116.3823 318° Northwest 237 273 22,100  Level Aus ATC (RADAR)
04:26AM -24.5913 116.3527 318° Northwest 237 273 22,100  Level Aus ATC (RADAR)
04:26AM -24.5579 116.3200 318° Northwest 234 269 22,100  Level Aus ATC (RADAR)
04:27AM -24.5197 116.2823 318° Northwest 235 270 22,100  Level Aus ATC (RADAR)
04:28AM -24.4991 116.2622 318° Northwest 232 267 22,100  Level Aus ATC (RADAR)
04:28AM -24.4689 116.2326 318° Northwest 236 272 22,100  Level Aus ATC (RADAR)
04:29AM -24.4224 116.1869 318° Northwest 236 272 22,100  Level Aus ATC (RADAR)
04:29AM -24.4010 116.1660 318° Northwest 236 272 22,100  Level Aus ATC (RADAR)
04:30AM -24.3712 116.1368 318° Northwest 237 273 22,100  Level Aus ATC (RADAR)
04:31AM -24.3367 116.1031 318° Northwest 239 275 22,100  Level Aus ATC (RADAR)
04:31AM -24.3024 116.0696 318° Northwest 238 274 22,100  Level Aus ATC (RADAR)
04:32AM -24.2646 116.0327 318° Northwest 235 270 22,100  Level Aus ATC (RADAR)
04:33AM -24.2442 116.0124 318° Northwest 231 266 22,100  Level Aus ATC (RADAR)
04:33AM -24.2133 115.9827 319° Northwest 239 275 22,100  Level Aus ATC (RADAR)
04:34AM -24.1544 115.9250 318° Northwest 232 267 22,100  Level Aus ATC (RADAR)
04:35AM -24.1330 115.9042 318° Northwest 234 269 22,100  Level Aus ATC (RADAR)
04:35AM -24.0989 115.8710 318° Northwest 236 272 22,100  Level Aus ATC (RADAR)
04:36AM -24.0648 115.8380 319° Northwest 234 269 22,100  Level Aus ATC (RADAR)
04:37AM -24.0347 115.8090 319° Northwest 235 270 22,100  Level Aus ATC (RADAR)
04:37AM -23.9974 115.7724 318° Northwest 232 267 22,100  Level Aus ATC (RADAR)
04:38AM -23.9768 115.7520 318° Northwest 229 264 22,100  Level Aus ATC (RADAR)
04:39AM -23.9284 115.7060 319° Northwest 237 273 22,100  Level Aus ATC (RADAR)
04:39AM -23.9040 115.6820 318° Northwest 232 267 22,100  Level Aus ATC (RADAR)
04:40AM -23.8813 115.6608 319° Northwest 239 275 22,100  Level Aus ATC (RADAR)
04:40AM -23.8480 115.6283 318° Northwest 233 268 22,100  Level Aus ATC (RADAR)
04:41AM -23.8201 115.6000 317° Northwest 228 262 22,100  Level Aus ATC (RADAR)
04:41AM -23.7897 115.5709 319° Northwest 233 268 22,100  Level Aus ATC (RADAR)
04:42AM -23.7516 115.5339 318° Northwest 234 269 22,100 -240 Level Aus ATC (RADAR)
04:43AM -23.7330 115.5171 320° Northwest 238 274 21,900 -240 Descending Aus ATC (RADAR)
04:43AM -23.7022 115.4876 319° Northwest 241 277 21,900  Level Aus ATC (RADAR)
04:45AM -23.6307 115.4177 318° Northwest 234 269 21,900  Level Aus ATC (RADAR)
04:45AM -23.6125 115.4009 320° Northwest 237 273 21,900  Level Aus ATC (RADAR)
04:45AM -23.6070 115.3950 320° Northwest 247 284  Descending FlightAware
04:45AM -23.5804 115.3715 320° Northwest 242 278 21,900 19,020 Climbing Aus ATC (RADAR)
04:46AM -23.5680 115.3580 319° Northwest 247 284  Descending FlightAware
04:46AM -23.5447 115.3345 319° Northwest 231 266 21,900 12,720 Climbing Aus ATC (RADAR)
04:46AM -23.5430 115.3340 319° Northwest 248 285 120 Descending FlightAware
04:47AM -23.5190 115.3110 319° Northwest 247 284 16,740 Level FlightAware
04:47AM -23.4960 115.2890 319° Northwest 247 284 27,060 Level FlightAware
04:48AM -23.4738 115.2681 319° Northwest 239 275 22,100 30,120 Climbing Aus ATC (RADAR)
04:48AM -23.4534 115.2477 317° Northwest 234 269 22,100 -180 Level Aus ATC (RADAR)
04:49AM -23.3926 115.1897 319° Northwest 240 276 21,900 -180 Descending Aus ATC (RADAR)
04:50AM -23.3699 115.1690 320° Northwest 241 277 21,900  Level Aus ATC (RADAR)
04:50AM -23.3470 115.1484 320° Northwest 244 281 21,900  Level Aus ATC (RADAR)
04:51AM -23.3149 115.1154 317° Northwest 233 268 21,900  Level Aus ATC (RADAR)
04:51AM -23.2805 115.0824 319° Northwest 235 270 21,900  Level Aus ATC (RADAR)
04:52AM -23.2489 115.0533 320° Northwest 239 275 21,900  Level Aus ATC (RADAR)
04:53AM -23.2099 115.0163 319° Northwest 237 273 21,900  Level Aus ATC (RADAR)
04:53AM -23.1909 114.9954 315° West 229 264 21,900  Level Aus ATC (RADAR)
04:54AM -23.1277 114.9379 320° Northwest 241 277 21,900  Level Aus ATC (RADAR)
04:55AM -23.1020 114.9129 318° Northwest 238 274 21,900  Level Aus ATC (RADAR)
04:55AM -23.0892 114.9007 319° Northwest 238 274 21,900 -240 Level Aus ATC (RADAR)
04:56AM -23.0582 114.8717 319° Northwest 238 274 21,700 -1,080 Descending Aus ATC (RADAR)
04:56AM -23.0142 114.8283 318° Northwest 237 273 20,400 -1,500 Descending Aus ATC (RADAR)
04:57AM -22.9848 114.7987 317° Northwest 233 268 19,600 -1,500 Descending Aus ATC (RADAR)
04:58AM -22.9470 114.7614 318° Northwest 227 261 18,400 -1,560 Descending Aus ATC (RADAR)
04:58AM -22.9246 114.7414 321° Northwest 229 264 17,800 -1,440 Descending Aus ATC (RADAR)
04:59AM -22.8763 114.6977 320° Northwest 229 264 16,500 -1,440 Descending Aus ATC (RADAR)
04:59AM -22.8545 114.6781 320° Northwest 227 261 15,900 -1,440 Descending Aus ATC (RADAR)
05:00AM -22.8359 114.6575 314° West 221 254 15,300 -1,500 Descending Aus ATC (RADAR)
05:00AM -22.8056 114.6303 320° Northwest 222 255 14,400 -1,380 Descending Aus ATC (RADAR)
05:01AM -22.7655 114.5947 321° Northwest 228 262 13,500 -1,200 Descending Aus ATC (RADAR)
05:02AM -22.7357 114.5667 319° Northwest 229 264 12,800 -1,200 Descending Aus ATC (RADAR)
05:05AM -22.5431 114.3846 318° Northwest 200 -3,960 Descending Aus ATC (Calculated)
05:07AM -22.4734 114.3174 318° Northwest  Level Estimated
05:08AM -22.4274 114.2731 318° Northwest  Level Estimated
05:09AM -22.3814 114.2288 318° Northwest  Level Estimated
05:10AM -22.3354 114.1846 318° Northwest  Level Estimated
05:10AM -22.2355 114.0885 121° Southeast  Level Aus ATC (Calculated)
05:12AM -22.2356 114.0886 119° Southeast  Level Estimated
05:13AM -22.2356 114.0886 13° North  Level Estimated
05:14AM -22.2356 114.0886 13° North  Level Estimated
05:15AM -22.2356 114.0886 13° North  Level Estimated
05:16AM -22.2356 114.0886 13° North  Level Estimated
05:17AM -22.2356 114.0886 13° North  Level Estimated